sensor_id;sensor_type;location;lat;lon;timestamp;pressure;altitude;pressure_sealevel;temperature;humidity
29549;BME280;16487;53.094;8.800;2023-02-14T00:00:30;104565.03;;;4.54;100.00
29549;BME280;16487;53.094;8.800;2023-02-14T00:02:58;104596.13;;;4.60;100.00
29549;BME280;16487;53.094;8.800;2023-02-14T00:05:25;104591.03;;;4.53;100.00
29549;BME280;16487;53.094;8.800;2023-02-14T00:07:52;104597.25;;;4.45;100.00
29549;BME280;16487;53.094;8.800;2023-02-14T00:10:21;104615.38;;;4.38;100.00
29549;BME280;16487;53.094;8.800;2023-02-14T00:12:48;104637.69;;;4.41;100.00
29549;BME280;16487;53.094;8.800;2023-02-14T00:15:17;104642.47;;;4.36;100.00
29549;BME280;16487;53.094;8.800;2023-02-14T00:17:44;104649.94;;;4.35;100.00
29549;BME280;16487;53.094;8.800;2023-02-14T00:20:11;104662.38;;;4.19;100.00
29549;BME280;16487;53.094;8.800;2023-02-14T00:22:38;104670.41;;;4.34;100.00
29549;BME280;16487;53.094;8.800;2023-02-14T00:25:06;104686.53;;;4.27;100.00
29549;BME280;16487;53.094;8.800;2023-02-14T00:27:35;104694.72;;;4.32;100.00
29549;BME280;16487;53.094;8.800;2023-02-14T00:30:03;104704.34;;;4.35;100.00
29549;BME280;16487;53.094;8.800;2023-02-14T00:32:30;104716.63;;;4.29;100.00
29549;BME280;16487;53.094;8.800;2023-02-14T00:34:58;104721.75;;;4.35;100.00
29549;BME280;16487;53.094;8.800;2023-02-14T00:37:25;104727.97;;;4.27;100.00
29549;BME280;16487;53.094;8.800;2023-02-14T00:39:53;104738.09;;;4.32;100.00
29549;BME280;16487;53.094;8.800;2023-02-14T00:42:20;104753.91;;;4.45;100.00
29549;BME280;16487;53.094;8.800;2023-02-14T00:44:49;104751.31;;;4.48;100.00
29549;BME280;16487;53.094;8.800;2023-02-14T00:47:16;104765.66;;;4.50;100.00
29549;BME280;16487;53.094;8.800;2023-02-14T00:49:44;104767.75;;;4.58;100.00
29549;BME280;16487;53.094;8.800;2023-02-14T00:52:11;104784.00;;;4.60;100.00
29549;BME280;16487;53.094;8.800;2023-02-14T00:54:38;104790.94;;;4.57;100.00
29549;BME280;16487;53.094;8.800;2023-02-14T00:57:06;104792.59;;;4.58;100.00
29549;BME280;16487;53.094;8.800;2023-02-14T00:59:35;104809.50;;;4.57;100.00
29549;BME280;16487;53.094;8.800;2023-02-14T01:02:04;104815.00;;;4.57;100.00
29549;BME280;16487;53.094;8.800;2023-02-14T01:04:33;104829.03;;;4.60;100.00
29549;BME280;16487;53.094;8.800;2023-02-14T01:07:00;104829.84;;;4.61;100.00
29549;BME280;16487;53.094;8.800;2023-02-14T01:09:28;104835.69;;;4.59;100.00
29549;BME280;16487;53.094;8.800;2023-02-14T01:11:55;104836.41;;;4.65;100.00
29549;BME280;16487;53.094;8.800;2023-02-14T01:14:22;104846.94;;;4.63;100.00
29549;BME280;16487;53.094;8.800;2023-02-14T01:16:50;104846.63;;;4.64;100.00
29549;BME280;16487;53.094;8.800;2023-02-14T01:19:18;104850.31;;;4.60;100.00
29549;BME280;16487;53.094;8.800;2023-02-14T01:21:46;104852.03;;;4.56;100.00
29549;BME280;16487;53.094;8.800;2023-02-14T01:24:13;104854.19;;;4.59;100.00
29549;BME280;16487;53.094;8.800;2023-02-14T01:26:42;104854.38;;;4.49;100.00
29549;BME280;16487;53.094;8.800;2023-02-14T01:29:09;104853.16;;;4.55;100.00
29549;BME280;16487;53.094;8.800;2023-02-14T01:31:37;104857.66;;;4.51;100.00
29549;BME280;16487;53.094;8.800;2023-02-14T01:34:04;104865.63;;;4.52;100.00
29549;BME280;16487;53.094;8.800;2023-02-14T01:36:35;104855.41;;;4.53;100.00
29549;BME280;16487;53.094;8.800;2023-02-14T01:39:06;104868.91;;;4.54;100.00
29549;BME280;16487;53.094;8.800;2023-02-14T01:41:35;104856.69;;;4.60;100.00
29549;BME280;16487;53.094;8.800;2023-02-14T01:44:06;104863.22;;;4.64;100.00
29549;BME280;16487;53.094;8.800;2023-02-14T01:46:35;104860.44;;;4.64;100.00
29549;BME280;16487;53.094;8.800;2023-02-14T01:49:08;104850.22;;;4.65;100.00
29549;BME280;16487;53.094;8.800;2023-02-14T01:51:42;104852.66;;;4.53;100.00
29549;BME280;16487;53.094;8.800;2023-02-14T01:54:11;104857.25;;;4.57;100.00
29549;BME280;16487;53.094;8.800;2023-02-14T01:56:42;104862.34;;;4.50;100.00
29549;BME280;16487;53.094;8.800;2023-02-14T01:59:16;104850.72;;;4.53;100.00
29549;BME280;16487;53.094;8.800;2023-02-14T02:01:44;104844.56;;;4.56;100.00
29549;BME280;16487;53.094;8.800;2023-02-14T02:04:16;104850.78;;;4.48;100.00
29549;BME280;16487;53.094;8.800;2023-02-14T02:06:48;104842.47;;;4.48;100.00
29549;BME280;16487;53.094;8.800;2023-02-14T02:09:21;104836.56;;;4.41;100.00
29549;BME280;16487;53.094;8.800;2023-02-14T02:11:50;104847.59;;;4.41;100.00
29549;BME280;16487;53.094;8.800;2023-02-14T02:14:19;104854.31;;;4.35;100.00
29549;BME280;16487;53.094;8.800;2023-02-14T02:17:08;104842.13;;;4.36;100.00
29549;BME280;16487;53.094;8.800;2023-02-14T02:23:11;104824.00;;;4.30;100.00
29549;BME280;16487;53.094;8.800;2023-02-14T02:26:09;104816.25;;;4.32;100.00
29549;BME280;16487;53.094;8.800;2023-02-14T02:29:00;104811.84;;;4.31;100.00
29549;BME280;16487;53.094;8.800;2023-02-14T02:31:53;104803.34;;;4.28;100.00
29549;BME280;16487;53.094;8.800;2023-02-14T02:37:47;104797.69;;;4.19;100.00
29549;BME280;16487;53.094;8.800;2023-02-14T02:40:28;104794.81;;;4.24;100.00
29549;BME280;16487;53.094;8.800;2023-02-14T02:43:05;104799.84;;;4.22;100.00
29549;BME280;16487;53.094;8.800;2023-02-14T02:45:43;104802.97;;;4.16;100.00
29549;BME280;16487;53.094;8.800;2023-02-14T02:48:19;104801.47;;;4.23;100.00
29549;BME280;16487;53.094;8.800;2023-02-14T02:50:52;104810.47;;;4.15;100.00
29549;BME280;16487;53.094;8.800;2023-02-14T02:53:28;104796.34;;;4.17;100.00
29549;BME280;16487;53.094;8.800;2023-02-14T02:56:01;104794.03;;;4.05;100.00
29549;BME280;16487;53.094;8.800;2023-02-14T02:58:34;104794.41;;;3.99;100.00
29549;BME280;16487;53.094;8.800;2023-02-14T03:01:08;104823.38;;;4.01;100.00
29549;BME280;16487;53.094;8.800;2023-02-14T03:03:38;104817.31;;;3.99;100.00
29549;BME280;16487;53.094;8.800;2023-02-14T03:06:07;104803.00;;;3.97;100.00
29549;BME280;16487;53.094;8.800;2023-02-14T03:08:36;104802.16;;;3.97;100.00
29549;BME280;16487;53.094;8.800;2023-02-14T03:11:04;104807.47;;;3.93;100.00
29549;BME280;16487;53.094;8.800;2023-02-14T03:13:45;104804.94;;;3.97;100.00
29549;BME280;16487;53.094;8.800;2023-02-14T03:16:23;104813.38;;;3.87;100.00
29549;BME280;16487;53.094;8.800;2023-02-14T03:21:51;104808.75;;;3.82;100.00
29549;BME280;16487;53.094;8.800;2023-02-14T03:24:27;104809.13;;;3.76;100.00
29549;BME280;16487;53.094;8.800;2023-02-14T03:27:03;104808.22;;;3.80;100.00
29549;BME280;16487;53.094;8.800;2023-02-14T03:29:42;104807.69;;;3.60;100.00
29549;BME280;16487;53.094;8.800;2023-02-14T03:32:16;104816.94;;;3.69;100.00
29549;BME280;16487;53.094;8.800;2023-02-14T03:34:53;104815.59;;;3.66;100.00
29549;BME280;16487;53.094;8.800;2023-02-14T03:37:28;104819.19;;;3.67;100.00
29549;BME280;16487;53.094;8.800;2023-02-14T03:40:04;104825.09;;;3.55;100.00
29549;BME280;16487;53.094;8.800;2023-02-14T03:42:35;104829.06;;;3.49;100.00
29549;BME280;16487;53.094;8.800;2023-02-14T03:45:08;104825.94;;;3.56;100.00
29549;BME280;16487;53.094;8.800;2023-02-14T03:47:39;104823.53;;;3.49;100.00
29549;BME280;16487;53.094;8.800;2023-02-14T03:50:10;104842.78;;;3.54;100.00
29549;BME280;16487;53.094;8.800;2023-02-14T03:52:39;104839.56;;;3.47;100.00
29549;BME280;16487;53.094;8.800;2023-02-14T03:55:10;104847.13;;;3.60;100.00
29549;BME280;16487;53.094;8.800;2023-02-14T03:57:45;104843.38;;;3.51;100.00
29549;BME280;16487;53.094;8.800;2023-02-14T04:00:16;104842.31;;;3.47;100.00
29549;BME280;16487;53.094;8.800;2023-02-14T04:02:47;104850.06;;;3.45;100.00
29549;BME280;16487;53.094;8.800;2023-02-14T04:05:19;104863.22;;;3.53;100.00
29549;BME280;16487;53.094;8.800;2023-02-14T04:07:50;104862.63;;;3.56;100.00
29549;BME280;16487;53.094;8.800;2023-02-14T04:10:20;104863.69;;;3.36;100.00
29549;BME280;16487;53.094;8.800;2023-02-14T04:12:48;104851.78;;;3.41;100.00
29549;BME280;16487;53.094;8.800;2023-02-14T04:15:16;104856.16;;;3.42;100.00
29549;BME280;16487;53.094;8.800;2023-02-14T04:17:43;104868.59;;;3.39;100.00
29549;BME280;16487;53.094;8.800;2023-02-14T04:20:11;104882.34;;;3.44;100.00
29549;BME280;16487;53.094;8.800;2023-02-14T04:22:38;104889.88;;;3.39;100.00
29549;BME280;16487;53.094;8.800;2023-02-14T04:25:06;104886.81;;;3.40;100.00
29549;BME280;16487;53.094;8.800;2023-02-14T04:27:34;104895.94;;;3.36;100.00
29549;BME280;16487;53.094;8.800;2023-02-14T04:30:02;104897.84;;;3.40;100.00
29549;BME280;16487;53.094;8.800;2023-02-14T04:32:30;104902.28;;;3.36;100.00
29549;BME280;16487;53.094;8.800;2023-02-14T04:34:57;104904.50;;;3.34;100.00
29549;BME280;16487;53.094;8.800;2023-02-14T04:37:24;104908.41;;;3.33;100.00
29549;BME280;16487;53.094;8.800;2023-02-14T04:39:51;104918.00;;;3.36;100.00
29549;BME280;16487;53.094;8.800;2023-02-14T04:42:19;104909.78;;;3.31;100.00
29549;BME280;16487;53.094;8.800;2023-02-14T04:44:48;104921.41;;;3.28;100.00
29549;BME280;16487;53.094;8.800;2023-02-14T04:47:15;104928.28;;;3.30;100.00
29549;BME280;16487;53.094;8.800;2023-02-14T04:49:42;104933.38;;;3.18;100.00
29549;BME280;16487;53.094;8.800;2023-02-14T04:52:10;104922.53;;;3.27;100.00
29549;BME280;16487;53.094;8.800;2023-02-14T04:54:37;104927.28;;;3.21;100.00
29549;BME280;16487;53.094;8.800;2023-02-14T04:57:05;104922.03;;;3.20;100.00
29549;BME280;16487;53.094;8.800;2023-02-14T04:59:32;104926.44;;;3.21;100.00
29549;BME280;16487;53.094;8.800;2023-02-14T05:02:00;104922.03;;;3.20;100.00
29549;BME280;16487;53.094;8.800;2023-02-14T05:04:28;104931.34;;;3.29;100.00
29549;BME280;16487;53.094;8.800;2023-02-14T05:06:55;104937.28;;;3.12;100.00
29549;BME280;16487;53.094;8.800;2023-02-14T05:09:22;104933.78;;;3.02;100.00
29549;BME280;16487;53.094;8.800;2023-02-14T05:11:50;104941.59;;;3.23;100.00
29549;BME280;16487;53.094;8.800;2023-02-14T05:14:17;104946.28;;;3.23;100.00
29549;BME280;16487;53.094;8.800;2023-02-14T05:16:45;104952.84;;;3.27;100.00
29549;BME280;16487;53.094;8.800;2023-02-14T05:19:13;104951.25;;;3.21;100.00
29549;BME280;16487;53.094;8.800;2023-02-14T05:21:41;104945.78;;;3.16;100.00
29549;BME280;16487;53.094;8.800;2023-02-14T05:24:08;104951.50;;;3.24;100.00
29549;BME280;16487;53.094;8.800;2023-02-14T05:26:35;104951.28;;;3.16;100.00
29549;BME280;16487;53.094;8.800;2023-02-14T05:29:02;104949.63;;;3.20;100.00
29549;BME280;16487;53.094;8.800;2023-02-14T05:31:30;104959.72;;;3.29;100.00
29549;BME280;16487;53.094;8.800;2023-02-14T05:33:57;104966.72;;;3.17;100.00
29549;BME280;16487;53.094;8.800;2023-02-14T05:36:26;104969.72;;;3.20;100.00
29549;BME280;16487;53.094;8.800;2023-02-14T05:38:53;104962.97;;;3.08;100.00
29549;BME280;16487;53.094;8.800;2023-02-14T05:41:20;104959.03;;;3.14;100.00
29549;BME280;16487;53.094;8.800;2023-02-14T05:43:47;104963.50;;;3.10;100.00
29549;BME280;16487;53.094;8.800;2023-02-14T05:46:15;104958.59;;;3.02;100.00
29549;BME280;16487;53.094;8.800;2023-02-14T05:48:42;104965.47;;;3.04;100.00
29549;BME280;16487;53.094;8.800;2023-02-14T05:51:10;104976.16;;;3.11;100.00
29549;BME280;16487;53.094;8.800;2023-02-14T05:53:38;104974.53;;;3.05;100.00
29549;BME280;16487;53.094;8.800;2023-02-14T05:56:06;104982.25;;;3.08;100.00
29549;BME280;16487;53.094;8.800;2023-02-14T05:58:33;104984.72;;;3.09;100.00
29549;BME280;16487;53.094;8.800;2023-02-14T06:01:01;104987.53;;;3.04;100.00
29549;BME280;16487;53.094;8.800;2023-02-14T06:03:28;104989.41;;;3.09;100.00
29549;BME280;16487;53.094;8.800;2023-02-14T06:05:55;104994.38;;;3.07;100.00
29549;BME280;16487;53.094;8.800;2023-02-14T06:08:23;104998.78;;;3.08;100.00
29549;BME280;16487;53.094;8.800;2023-02-14T06:10:51;105008.44;;;3.05;100.00
29549;BME280;16487;53.094;8.800;2023-02-14T06:13:19;105005.47;;;2.97;100.00
29549;BME280;16487;53.094;8.800;2023-02-14T06:15:47;105008.78;;;2.99;100.00
29549;BME280;16487;53.094;8.800;2023-02-14T06:18:14;105020.94;;;2.98;100.00
29549;BME280;16487;53.094;8.800;2023-02-14T06:20:41;105019.50;;;3.00;100.00
29549;BME280;16487;53.094;8.800;2023-02-14T06:23:09;105024.72;;;3.02;100.00
29549;BME280;16487;53.094;8.800;2023-02-14T06:25:36;105031.91;;;3.03;100.00
29549;BME280;16487;53.094;8.800;2023-02-14T06:28:05;105036.00;;;3.05;100.00
29549;BME280;16487;53.094;8.800;2023-02-14T06:30:32;105038.44;;;3.12;100.00
29549;BME280;16487;53.094;8.800;2023-02-14T06:32:59;105040.72;;;3.00;100.00
29549;BME280;16487;53.094;8.800;2023-02-14T06:35:27;105045.69;;;3.03;100.00
29549;BME280;16487;53.094;8.800;2023-02-14T06:37:54;105048.44;;;3.03;100.00
29549;BME280;16487;53.094;8.800;2023-02-14T06:40:21;105041.63;;;2.90;100.00
29549;BME280;16487;53.094;8.800;2023-02-14T06:42:49;105046.84;;;2.92;100.00
29549;BME280;16487;53.094;8.800;2023-02-14T06:45:17;105047.91;;;3.01;100.00
29549;BME280;16487;53.094;8.800;2023-02-14T06:47:45;105052.91;;;2.94;100.00
29549;BME280;16487;53.094;8.800;2023-02-14T06:50:12;105057.84;;;2.97;100.00
29549;BME280;16487;53.094;8.800;2023-02-14T06:52:39;105056.75;;;2.93;100.00
29549;BME280;16487;53.094;8.800;2023-02-14T06:55:07;105060.28;;;3.03;100.00
29549;BME280;16487;53.094;8.800;2023-02-14T06:57:35;105056.75;;;2.93;100.00
29549;BME280;16487;53.094;8.800;2023-02-14T07:00:03;105065.75;;;3.08;100.00
29549;BME280;16487;53.094;8.800;2023-02-14T07:02:31;105061.56;;;3.16;100.00
29549;BME280;16487;53.094;8.800;2023-02-14T07:04:59;105065.44;;;3.15;100.00
29549;BME280;16487;53.094;8.800;2023-02-14T07:07:26;105061.31;;;3.12;100.00
29549;BME280;16487;53.094;8.800;2023-02-14T07:09:53;105058.84;;;3.11;100.00
29549;BME280;16487;53.094;8.800;2023-02-14T07:12:21;105073.50;;;3.06;100.00
29549;BME280;16487;53.094;8.800;2023-02-14T07:14:48;105065.50;;;3.05;100.00
29549;BME280;16487;53.094;8.800;2023-02-14T07:17:15;105073.47;;;3.11;100.00
29549;BME280;16487;53.094;8.800;2023-02-14T07:19:44;105079.75;;;3.17;100.00
29549;BME280;16487;53.094;8.800;2023-02-14T07:22:11;105085.59;;;3.10;100.00
29549;BME280;16487;53.094;8.800;2023-02-14T07:24:39;105087.00;;;3.08;100.00
29549;BME280;16487;53.094;8.800;2023-02-14T07:27:06;105097.94;;;3.18;100.00
29549;BME280;16487;53.094;8.800;2023-02-14T07:29:33;105093.00;;;3.15;100.00
29549;BME280;16487;53.094;8.800;2023-02-14T07:32:00;105098.25;;;3.16;100.00
29549;BME280;16487;53.094;8.800;2023-02-14T07:34:28;105094.66;;;3.16;100.00
29549;BME280;16487;53.094;8.800;2023-02-14T07:36:57;105091.34;;;3.14;100.00
29549;BME280;16487;53.094;8.800;2023-02-14T07:39:24;105105.63;;;3.21;100.00
29549;BME280;16487;53.094;8.800;2023-02-14T07:41:51;105106.44;;;3.26;100.00
29549;BME280;16487;53.094;8.800;2023-02-14T07:44:19;105105.84;;;3.29;100.00
29549;BME280;16487;53.094;8.800;2023-02-14T07:46:46;105117.41;;;3.31;100.00
29549;BME280;16487;53.094;8.800;2023-02-14T07:49:14;105120.13;;;3.36;100.00
29549;BME280;16487;53.094;8.800;2023-02-14T07:51:41;105119.28;;;3.41;100.00
29549;BME280;16487;53.094;8.800;2023-02-14T07:54:10;105117.34;;;3.41;100.00
29549;BME280;16487;53.094;8.800;2023-02-14T07:56:37;105130.81;;;3.48;100.00
29549;BME280;16487;53.094;8.800;2023-02-14T07:59:05;105121.44;;;3.49;100.00
29549;BME280;16487;53.094;8.800;2023-02-14T08:01:32;105125.28;;;3.53;100.00
29549;BME280;16487;53.094;8.800;2023-02-14T08:03:59;105125.28;;;3.53;100.00
29549;BME280;16487;53.094;8.800;2023-02-14T08:06:27;105131.28;;;3.55;100.00
29549;BME280;16487;53.094;8.800;2023-02-14T08:08:54;105132.72;;;3.53;100.00
29549;BME280;16487;53.094;8.800;2023-02-14T08:11:23;105139.56;;;3.60;100.00
29549;BME280;16487;53.094;8.800;2023-02-14T08:13:50;105135.66;;;3.61;100.00
29549;BME280;16487;53.094;8.800;2023-02-14T08:16:17;105135.09;;;3.64;100.00
29549;BME280;16487;53.094;8.800;2023-02-14T08:18:44;105145.53;;;3.67;100.00
29549;BME280;16487;53.094;8.800;2023-02-14T08:21:12;105138.63;;;3.70;100.00
29549;BME280;16487;53.094;8.800;2023-02-14T08:23:39;105146.56;;;3.76;100.00
29549;BME280;16487;53.094;8.800;2023-02-14T08:26:06;105137.50;;;3.76;100.00
29549;BME280;16487;53.094;8.800;2023-02-14T08:28:35;105131.97;;;3.76;100.00
29549;BME280;16487;53.094;8.800;2023-02-14T08:31:03;105148.78;;;3.79;100.00
29549;BME280;16487;53.094;8.800;2023-02-14T08:33:31;105139.38;;;3.80;100.00
29549;BME280;16487;53.094;8.800;2023-02-14T08:35:58;105132.69;;;3.86;100.00
29549;BME280;16487;53.094;8.800;2023-02-14T08:38:26;105125.19;;;3.92;100.00
29549;BME280;16487;53.094;8.800;2023-02-14T08:40:53;105124.31;;;3.96;100.00
29549;BME280;16487;53.094;8.800;2023-02-14T08:43:20;105118.75;;;4.01;100.00
29549;BME280;16487;53.094;8.800;2023-02-14T08:45:52;105108.19;;;4.08;100.00
29549;BME280;16487;53.094;8.800;2023-02-14T08:48:20;105105.38;;;4.13;100.00
29549;BME280;16487;53.094;8.800;2023-02-14T08:50:47;105085.69;;;4.20;100.00
29549;BME280;16487;53.094;8.800;2023-02-14T08:53:14;105062.47;;;4.21;100.00
29549;BME280;16487;53.094;8.800;2023-02-14T08:55:41;105051.94;;;4.23;100.00
29549;BME280;16487;53.094;8.800;2023-02-14T08:58:09;105037.22;;;4.32;100.00
29549;BME280;16487;53.094;8.800;2023-02-14T09:00:36;105013.38;;;4.36;100.00
29549;BME280;16487;53.094;8.800;2023-02-14T09:03:05;105001.84;;;4.34;100.00
29549;BME280;16487;53.094;8.800;2023-02-14T09:05:32;104975.91;;;4.49;100.00
29549;BME280;16487;53.094;8.800;2023-02-14T09:08:00;104949.13;;;4.49;100.00
29549;BME280;16487;53.094;8.800;2023-02-14T09:10:28;104913.03;;;4.59;100.00
29549;BME280;16487;53.094;8.800;2023-02-14T09:12:55;104862.72;;;4.44;100.00
29549;BME280;16487;53.094;8.800;2023-02-14T09:15:22;104835.69;;;4.59;100.00
29549;BME280;16487;53.094;8.800;2023-02-14T09:17:50;104786.38;;;4.66;100.00
29549;BME280;16487;53.094;8.800;2023-02-14T09:20:19;104733.56;;;4.68;100.00
29549;BME280;16487;53.094;8.800;2023-02-14T09:22:46;104670.09;;;4.77;100.00
29549;BME280;16487;53.094;8.800;2023-02-14T09:25:15;104609.81;;;4.79;100.00
29549;BME280;16487;53.094;8.800;2023-02-14T09:27:42;104556.06;;;4.85;100.00
29549;BME280;16487;53.094;8.800;2023-02-14T09:30:11;104492.97;;;4.87;100.00
29549;BME280;16487;53.094;8.800;2023-02-14T09:32:38;104425.53;;;4.88;100.00
29549;BME280;16487;53.094;8.800;2023-02-14T09:35:06;104369.16;;;4.97;100.00
29549;BME280;16487;53.094;8.800;2023-02-14T09:37:35;104321.22;;;5.02;100.00
29549;BME280;16487;53.094;8.800;2023-02-14T09:40:03;104259.13;;;5.08;100.00
29549;BME280;16487;53.094;8.800;2023-02-14T09:42:39;104196.38;;;5.17;100.00
29549;BME280;16487;53.094;8.800;2023-02-14T09:45:10;104146.09;;;5.23;100.00
29549;BME280;16487;53.094;8.800;2023-02-14T09:47:42;104092.44;;;5.33;100.00
29549;BME280;16487;53.094;8.800;2023-02-14T09:50:17;104046.22;;;5.50;100.00
29549;BME280;16487;53.094;8.800;2023-02-14T09:52:50;104033.84;;;5.48;100.00
29549;BME280;16487;53.094;8.800;2023-02-14T09:55:18;104007.16;;;5.52;100.00
29549;BME280;16487;53.094;8.800;2023-02-14T09:57:57;103969.38;;;5.56;100.00
29549;BME280;16487;53.094;8.800;2023-02-14T10:00:33;103948.03;;;5.65;100.00
29549;BME280;16487;53.094;8.800;2023-02-14T10:03:30;103934.34;;;5.68;100.00
29549;BME280;16487;53.094;8.800;2023-02-14T10:06:06;103914.41;;;5.92;100.00
29549;BME280;16487;53.094;8.800;2023-02-14T10:08:49;103904.81;;;5.90;100.00
29549;BME280;16487;53.094;8.800;2023-02-14T10:11:22;103883.44;;;5.99;100.00
29549;BME280;16487;53.094;8.800;2023-02-14T10:13:53;103869.31;;;6.12;100.00
29549;BME280;16487;53.094;8.800;2023-02-14T10:16:23;103861.50;;;6.14;100.00
29549;BME280;16487;53.094;8.800;2023-02-14T10:18:55;103835.28;;;6.32;100.00
29549;BME280;16487;53.094;8.800;2023-02-14T10:21:27;103813.84;;;6.41;100.00
29549;BME280;16487;53.094;8.800;2023-02-14T10:24:02;103800.69;;;6.71;100.00
29549;BME280;16487;53.094;8.800;2023-02-14T10:26:34;103751.53;;;8.90;100.00
29549;BME280;16487;53.094;8.800;2023-02-14T10:29:02;103679.72;;;9.46;100.00
29549;BME280;16487;53.094;8.800;2023-02-14T10:31:38;103522.00;;;10.70;100.00
29549;BME280;16487;53.094;8.800;2023-02-14T10:34:13;103329.66;;;11.17;100.00
29549;BME280;16487;53.094;8.800;2023-02-14T10:36:50;103106.13;;;10.89;100.00
29549;BME280;16487;53.094;8.800;2023-02-14T10:39:34;102913.34;;;11.22;100.00
29549;BME280;16487;53.094;8.800;2023-02-14T10:42:14;102770.50;;;10.64;100.00
29549;BME280;16487;53.094;8.800;2023-02-14T10:44:49;102663.88;;;12.10;100.00
29549;BME280;16487;53.094;8.800;2023-02-14T10:47:28;102564.03;;;11.20;100.00
29549;BME280;16487;53.094;8.800;2023-02-14T10:50:05;102508.31;;;12.37;100.00
29549;BME280;16487;53.094;8.800;2023-02-14T10:52:41;102427.63;;;12.39;100.00
29549;BME280;16487;53.094;8.800;2023-02-14T10:55:17;102363.03;;;11.86;100.00
29549;BME280;16487;53.094;8.800;2023-02-14T10:58:02;102375.25;;;12.02;100.00
29549;BME280;16487;53.094;8.800;2023-02-14T11:00:32;102344.78;;;12.48;100.00
29549;BME280;16487;53.094;8.800;2023-02-14T11:03:02;102335.69;;;14.04;100.00
29549;BME280;16487;53.094;8.800;2023-02-14T11:05:35;102285.28;;;12.14;100.00
29549;BME280;16487;53.094;8.800;2023-02-14T11:08:13;102281.75;;;12.74;100.00
29549;BME280;16487;53.094;8.800;2023-02-14T11:10:42;102289.50;;;11.48;100.00
29549;BME280;16487;53.094;8.800;2023-02-14T11:13:25;102271.59;;;12.57;100.00
29549;BME280;16487;53.094;8.800;2023-02-14T11:15:58;102257.63;;;12.84;100.00
29549;BME280;16487;53.094;8.800;2023-02-14T11:18:27;102252.38;;;12.29;100.00
29549;BME280;16487;53.094;8.800;2023-02-14T11:20:59;102260.63;;;12.39;100.00
29549;BME280;16487;53.094;8.800;2023-02-14T11:23:31;102273.34;;;12.44;100.00
29549;BME280;16487;53.094;8.800;2023-02-14T11:26:02;102238.53;;;13.28;100.00
29549;BME280;16487;53.094;8.800;2023-02-14T11:28:31;102196.84;;;13.34;100.00
29549;BME280;16487;53.094;8.800;2023-02-14T11:31:00;102181.97;;;14.19;100.00
29549;BME280;16487;53.094;8.800;2023-02-14T11:33:33;102169.56;;;14.20;100.00
29549;BME280;16487;53.094;8.800;2023-02-14T11:36:08;102153.94;;;14.19;100.00
29549;BME280;16487;53.094;8.800;2023-02-14T11:38:37;102122.66;;;15.04;100.00
29549;BME280;16487;53.094;8.800;2023-02-14T11:41:08;102108.78;;;14.65;100.00
29549;BME280;16487;53.094;8.800;2023-02-14T11:43:38;102103.53;;;14.99;100.00
29549;BME280;16487;53.094;8.800;2023-02-14T11:46:12;102082.34;;;16.22;100.00
29549;BME280;16487;53.094;8.800;2023-02-14T11:48:54;102083.44;;;15.99;100.00
29549;BME280;16487;53.094;8.800;2023-02-14T11:51:26;102166.25;;;16.11;100.00
29549;BME280;16487;53.094;8.800;2023-02-14T11:53:55;102306.75;;;14.50;100.00
29549;BME280;16487;53.094;8.800;2023-02-14T11:56:43;102217.88;;;13.22;100.00
29549;BME280;16487;53.094;8.800;2023-02-14T11:59:23;102257.06;;;14.86;100.00
29549;BME280;16487;53.094;8.800;2023-02-14T12:01:52;102303.09;;;15.08;100.00
29549;BME280;16487;53.094;8.800;2023-02-14T12:04:26;102334.03;;;14.69;100.00
29549;BME280;16487;53.094;8.800;2023-02-14T12:07:17;102274.72;;;15.19;100.00
29549;BME280;16487;53.094;8.800;2023-02-14T12:09:46;102278.09;;;14.78;100.00
29549;BME280;16487;53.094;8.800;2023-02-14T12:12:18;102279.59;;;14.47;100.00
29549;BME280;16487;53.094;8.800;2023-02-14T12:14:46;102292.28;;;14.12;100.00
29549;BME280;16487;53.094;8.800;2023-02-14T12:17:22;102230.59;;;15.51;100.00
29549;BME280;16487;53.094;8.800;2023-02-14T12:19:54;102323.91;;;14.91;100.00
29549;BME280;16487;53.094;8.800;2023-02-14T12:22:31;102307.53;;;15.73;100.00
29549;BME280;16487;53.094;8.800;2023-02-14T12:25:03;102334.75;;;15.76;100.00
29549;BME280;16487;53.094;8.800;2023-02-14T12:27:42;102330.50;;;15.84;100.00
29549;BME280;16487;53.094;8.800;2023-02-14T12:30:14;102393.84;;;16.21;100.00
29549;BME280;16487;53.094;8.800;2023-02-14T12:32:46;102431.94;;;16.26;100.00
29549;BME280;16487;53.094;8.800;2023-02-14T12:35:16;102507.47;;;16.27;100.00
29549;BME280;16487;53.094;8.800;2023-02-14T12:37:59;102602.56;;;15.80;100.00
29549;BME280;16487;53.094;8.800;2023-02-14T12:40:42;102563.16;;;15.25;100.00
29549;BME280;16487;53.094;8.800;2023-02-14T12:43:24;102536.88;;;15.90;100.00
29549;BME280;16487;53.094;8.800;2023-02-14T12:46:11;102615.28;;;15.49;100.00
29549;BME280;16487;53.094;8.800;2023-02-14T12:48:52;102646.75;;;15.60;100.00
29549;BME280;16487;53.094;8.800;2023-02-14T12:51:26;102678.00;;;15.85;100.00
29549;BME280;16487;53.094;8.800;2023-02-14T12:54:02;102714.59;;;15.16;100.00
29549;BME280;16487;53.094;8.800;2023-02-14T12:56:41;102728.19;;;16.07;100.00
29549;BME280;16487;53.094;8.800;2023-02-14T12:59:24;102795.00;;;15.79;100.00
29549;BME280;16487;53.094;8.800;2023-02-14T13:05:02;102822.72;;;16.24;100.00
29549;BME280;16487;53.094;8.800;2023-02-14T13:07:45;102878.44;;;15.36;100.00
29549;BME280;16487;53.094;8.800;2023-02-14T13:10:27;102892.78;;;15.72;100.00
29549;BME280;16487;53.094;8.800;2023-02-14T13:13:02;102993.84;;;16.75;100.00
29549;BME280;16487;53.094;8.800;2023-02-14T13:15:41;103078.34;;;16.75;100.00
29549;BME280;16487;53.094;8.800;2023-02-14T13:18:17;103143.16;;;16.22;100.00